createdAt,value
2023-07-03T00:01:27.555Z,5.95
2023-07-03T00:06:30.577Z,5.60
2023-07-03T00:11:34.324Z,5.80
2023-07-03T00:16:37.059Z,5.72
2023-07-03T00:21:45.019Z,6.53
2023-07-03T00:26:47.625Z,6.30
2023-07-03T00:31:50.389Z,6.22
2023-07-03T00:36:53.160Z,6.15
2023-07-03T00:41:55.777Z,5.77
2023-07-03T00:46:58.386Z,5.68
2023-07-03T00:52:04.075Z,6.25
2023-07-03T00:57:07.185Z,5.47
2023-07-03T01:02:19.737Z,6.20
2023-07-03T01:07:32.525Z,5.65
2023-07-03T01:12:40.114Z,5.85
2023-07-03T01:17:46.055Z,5.27
2023-07-03T01:23:07.825Z,5.93
2023-07-03T01:28:14.108Z,5.18
2023-07-03T01:33:23.102Z,6.33
2023-07-03T01:38:28.251Z,6.45
2023-07-03T01:43:31.987Z,6.78
2023-07-03T01:48:35.501Z,6.17
2023-07-03T01:59:26.091Z,6.43
2023-07-03T02:04:51.955Z,5.55
2023-07-03T02:09:57.698Z,5.70
2023-07-03T02:15:05.463Z,5.93
2023-07-03T02:20:18.234Z,5.68
2023-07-03T02:25:23.033Z,6.20
2023-07-03T02:30:25.595Z,5.28
2023-07-03T02:35:29.020Z,5.63
2023-07-03T02:40:31.570Z,5.73
2023-07-03T02:45:39.404Z,5.93
2023-07-03T02:50:44.214Z,5.75
2023-07-03T02:55:50.259Z,5.85
2023-07-03T03:00:58.102Z,5.77
2023-07-03T03:06:00.995Z,5.65
2023-07-03T03:11:04.337Z,5.28
2023-07-03T03:16:07.777Z,5.50
2023-07-03T03:21:10.573Z,5.30
2023-07-03T03:26:13.579Z,5.30
2023-07-03T03:31:16.584Z,5.43
2023-07-03T03:36:27.863Z,4.53
2023-07-03T03:41:31.162Z,5.25
2023-07-03T03:46:36.021Z,4.30
2023-07-03T03:51:39.413Z,4.43
2023-07-03T03:56:42.202Z,4.80
2023-07-03T04:01:46.560Z,4.32
2023-07-03T04:06:49.270Z,5.40
2023-07-03T04:11:52.179Z,4.75
2023-07-03T04:16:58.719Z,4.93
2023-07-03T04:22:02.314Z,4.90
2023-07-03T04:27:05.184Z,5.30
2023-07-03T04:32:08.282Z,5.70
2023-07-03T04:37:11.112Z,5.45
2023-07-03T04:42:15.184Z,4.73
2023-07-03T04:47:20.265Z,4.60
2023-07-03T04:52:28.905Z,4.47
2023-07-03T04:57:31.649Z,4.63
2023-07-03T05:02:34.208Z,4.70
2023-07-03T05:07:36.785Z,3.97
2023-07-03T05:12:39.852Z,4.70
2023-07-03T05:17:46.124Z,4.23
2023-07-03T05:22:48.810Z,4.03
2023-07-03T05:27:51.414Z,4.10
2023-07-03T05:32:54.108Z,3.80
2023-07-03T05:37:57.772Z,3.55
2023-07-03T05:43:00.294Z,3.60
2023-07-03T05:48:03.697Z,3.60
2023-07-03T05:53:06.757Z,4.15
2023-07-03T05:58:10.093Z,4.38
2023-07-03T06:03:18.526Z,4.20
2023-07-03T06:08:24.101Z,4.03
2023-07-03T06:13:27.878Z,4.25
2023-07-03T06:18:30.436Z,3.55
2023-07-03T06:23:35.347Z,3.77
2023-07-03T06:28:38.090Z,4.18
2023-07-03T06:33:40.630Z,4.10
2023-07-03T06:38:43.246Z,4.37
2023-07-03T06:43:45.952Z,4.47
2023-07-03T06:48:48.517Z,4.88
2023-07-03T06:53:51.176Z,4.90
2023-07-03T06:58:53.941Z,5.00
2023-07-03T07:03:56.689Z,4.47
2023-07-03T07:09:00.817Z,4.53
2023-07-03T07:14:06.042Z,4.13
2023-07-03T07:19:11.074Z,4.68
2023-07-03T07:24:15.680Z,5.00
2023-07-03T07:29:18.516Z,5.27
2023-07-03T07:34:21.149Z,4.70
2023-07-03T07:39:26.318Z,4.80
2023-07-03T07:44:29.479Z,4.30
2023-07-03T07:49:32.085Z,4.77
2023-07-03T07:54:35.086Z,4.68
2023-07-03T07:59:38.033Z,4.32
2023-07-03T08:04:40.897Z,4.40
2023-07-03T08:09:44.203Z,5.00
2023-07-03T08:14:46.690Z,4.78
2023-07-03T08:19:49.325Z,4.83
2023-07-03T08:24:51.902Z,4.75
2023-07-03T08:29:56.092Z,4.55
2023-07-03T08:40:08.432Z,5.60
2023-07-03T08:45:16.928Z,4.78
2023-07-03T08:50:35.805Z,5.40
2023-07-03T08:55:48.544Z,4.83
2023-07-03T09:01:12.102Z,4.80
2023-07-03T09:06:24.531Z,4.97
2023-07-03T09:11:30.069Z,5.20
2023-07-03T09:16:32.829Z,5.28
2023-07-03T09:21:37.841Z,5.03
2023-07-03T09:26:45.446Z,5.00
2023-07-03T09:31:48.041Z,5.27
2023-07-03T09:37:00.752Z,4.82
2023-07-03T09:42:09.625Z,5.80
2023-07-03T09:47:27.677Z,4.57
2023-07-03T09:52:30.461Z,5.25
2023-07-03T09:57:35.341Z,4.97
2023-07-03T10:07:46.146Z,4.80
2023-07-03T10:13:04.614Z,5.10
2023-07-03T10:18:22.116Z,5.07
2023-07-03T10:23:28.862Z,5.03
2023-07-03T10:28:37.289Z,5.10
2023-07-03T10:33:45.828Z,4.70
2023-07-03T10:39:07.225Z,5.07
2023-07-03T10:44:14.615Z,5.13
2023-07-03T10:49:28.220Z,5.68
2023-07-03T10:54:36.057Z,5.93
2023-07-03T10:59:46.882Z,5.20
2023-07-03T11:04:59.280Z,5.60
2023-07-03T11:10:32.972Z,6.00
2023-07-03T11:15:57.334Z,5.83
2023-07-03T11:31:27.265Z,5.73
2023-07-03T11:36:50.705Z,5.88
2023-07-03T11:47:17.252Z,5.90
2023-07-03T11:52:31.535Z,5.25
2023-07-03T11:57:38.543Z,5.32
2023-07-03T12:02:41.098Z,6.13
2023-07-03T12:07:48.438Z,5.00
2023-07-03T12:13:45.254Z,5.25
2023-07-03T12:19:03.660Z,5.50
2023-07-03T12:24:20.069Z,5.50
2023-07-03T12:29:23.748Z,6.13
2023-07-03T12:34:28.060Z,5.82
2023-07-03T12:39:33.321Z,6.67
2023-07-03T12:44:36.007Z,6.55
2023-07-03T12:50:01.916Z,6.50
2023-07-03T12:55:14.707Z,6.30
2023-07-03T13:00:26.528Z,6.03
2023-07-03T13:05:33.832Z,6.60
2023-07-03T13:10:37.628Z,4.72
2023-07-03T13:15:42.949Z,5.57
2023-07-03T13:20:57.560Z,4.72
2023-07-03T13:26:01.694Z,4.45
2023-07-03T13:31:15.269Z,5.67
2023-07-03T13:36:32.430Z,5.85
2023-07-03T13:41:36.110Z,6.22
2023-07-03T13:46:40.274Z,5.10
2023-07-03T13:51:48.711Z,4.70
2023-07-03T13:56:51.498Z,4.45
2023-07-03T14:01:54.068Z,4.30
2023-07-03T14:06:56.586Z,4.60
2023-07-03T14:11:59.182Z,4.93
2023-07-03T14:17:04.423Z,4.65
2023-07-03T14:22:07.039Z,4.03
2023-07-03T14:27:10.432Z,4.30
2023-07-03T14:32:13.199Z,4.40
2023-07-03T14:37:18.215Z,6.00
2023-07-03T14:42:21.001Z,3.73
2023-07-03T14:47:23.713Z,5.65
2023-07-03T14:52:35.942Z,5.25
2023-07-03T14:57:39.023Z,4.83
2023-07-03T15:02:43.564Z,5.10
2023-07-03T15:07:47.175Z,5.20
2023-07-03T15:12:49.967Z,5.67
2023-07-03T15:17:52.969Z,4.65
2023-07-03T15:22:55.676Z,4.50
2023-07-03T15:28:00.820Z,4.90
2023-07-03T15:33:03.360Z,4.60
2023-07-03T15:38:06.227Z,5.43
2023-07-03T15:43:09.140Z,5.13
2023-07-03T15:48:12.089Z,4.70
2023-07-03T15:53:14.712Z,4.75
2023-07-03T15:58:17.337Z,4.32
2023-07-03T16:03:20.097Z,5.40
2023-07-03T16:08:22.767Z,4.35
2023-07-03T16:13:27.958Z,4.45
2023-07-03T16:18:32.251Z,6.50
2023-07-03T16:23:37.332Z,10.20
2023-07-03T16:28:40.777Z,6.07
2023-07-03T16:33:45.362Z,5.55
2023-07-03T16:38:53.238Z,7.20
2023-07-03T16:43:57.855Z,6.38
2023-07-03T16:49:00.528Z,4.95
2023-07-03T16:54:04.554Z,5.17
2023-07-03T16:59:07.278Z,5.45
2023-07-03T17:04:09.952Z,4.85
2023-07-03T17:09:13.138Z,4.87
2023-07-03T17:14:15.860Z,4.33
2023-07-03T17:19:18.548Z,4.60
2023-07-03T17:24:21.242Z,4.95
2023-07-03T17:29:24.031Z,4.70
2023-07-03T17:34:26.636Z,4.80
2023-07-03T17:39:29.273Z,4.97
2023-07-03T17:44:32.590Z,5.20
2023-07-03T17:49:37.468Z,5.88
2023-07-03T17:54:40.662Z,5.50
2023-07-03T17:59:43.321Z,5.60
2023-07-03T18:04:46.057Z,5.50
2023-07-03T18:09:48.876Z,5.65
2023-07-03T18:14:51.413Z,5.63
2023-07-03T18:19:54.204Z,5.97
2023-07-03T18:24:56.700Z,7.05
2023-07-03T18:29:59.284Z,5.20
2023-07-03T18:35:02.213Z,5.30
2023-07-03T18:40:07.490Z,6.00
2023-07-03T18:45:10.242Z,5.90
2023-07-03T18:50:14.481Z,5.97
2023-07-03T18:55:17.357Z,6.17
2023-07-03T19:00:20.242Z,5.90
2023-07-03T19:05:22.781Z,5.70
2023-07-03T19:10:25.349Z,5.80
2023-07-03T19:15:28.008Z,6.22
2023-07-03T19:20:30.645Z,5.75
2023-07-03T19:25:33.589Z,6.03
2023-07-03T19:30:36.581Z,7.25
2023-07-03T19:35:39.441Z,6.90
2023-07-03T19:40:42.626Z,6.73
2023-07-03T19:45:45.676Z,6.40
2023-07-03T19:50:49.481Z,7.15
2023-07-03T19:55:52.265Z,7.18
2023-07-03T20:00:57.069Z,6.90
2023-07-03T20:05:59.824Z,7.07
2023-07-03T20:11:03.356Z,7.40
2023-07-03T20:16:06.252Z,6.83
2023-07-03T20:21:09.184Z,8.00
2023-07-03T20:26:11.822Z,7.45
2023-07-03T20:31:16.280Z,6.13
2023-07-03T20:36:19.764Z,5.40
2023-07-03T20:41:22.497Z,5.82
2023-07-03T20:46:25.669Z,6.90
2023-07-03T20:51:33.700Z,6.27
2023-07-03T20:56:38.823Z,6.35
2023-07-03T21:01:41.493Z,5.38
2023-07-03T21:06:46.121Z,5.27
2023-07-03T21:11:49.255Z,5.97
2023-07-03T21:16:54.777Z,5.63
2023-07-03T21:21:57.354Z,6.40
2023-07-03T21:26:59.839Z,5.97
2023-07-03T21:32:02.513Z,6.72
2023-07-03T21:37:07.404Z,6.45
2023-07-03T21:42:10.190Z,6.70
2023-07-03T21:47:14.505Z,7.68
2023-07-03T21:52:17.020Z,7.05
2023-07-03T21:57:20.653Z,7.10
2023-07-03T22:02:23.257Z,6.47
2023-07-03T22:07:25.788Z,7.57
2023-07-03T22:12:28.720Z,6.83
2023-07-03T22:17:31.605Z,6.70
2023-07-03T22:22:36.586Z,6.63
2023-07-03T22:27:39.295Z,7.05
2023-07-03T22:32:42.183Z,7.13
2023-07-03T22:37:45.499Z,8.20
2023-07-03T22:42:48.850Z,7.38
2023-07-03T22:47:54.996Z,9.03
2023-07-03T22:52:58.684Z,9.55
2023-07-03T22:58:01.499Z,10.55
2023-07-03T23:03:04.249Z,11.10
2023-07-03T23:08:06.990Z,11.03
2023-07-03T23:13:09.587Z,11.48
2023-07-03T23:18:13.884Z,10.70
2023-07-03T23:23:17.083Z,10.30
2023-07-03T23:28:20.363Z,10.38
2023-07-03T23:33:23.197Z,10.63
2023-07-03T23:38:27.434Z,10.90
2023-07-03T23:43:30.166Z,9.80
2023-07-03T23:48:33.206Z,10.43
2023-07-03T23:53:44.369Z,11.00
2023-07-03T23:58:49.759Z,11.47
